Terminal Aerodrome Forecast
Issued by NWS Mt. Holly, NJ

Home | Current Version | Previous Version | Text Only | Print | Product List | Glossary On
Versions: 1 2 3 4 5 6 7 8 9 10 11 12
000
FTUS41 KPHI 042321
TAFRDG
TAF
KRDG 042321Z 0500/0524 20008KT P6SM SCT050
     FM050400 VRB03KT P6SM SCT050
     FM051300 30006KT P6SM BKN050
      TEMPO 0514/0518 -SHRA OVC035
     FM051800 31006KT P6SM -SHRA OVC035=

USA.gov is the U.S. government's official web portal to all federal, state and local government web resources and services.